createdAt,value
2023-05-08T00:01:31.157Z,47.80
2023-05-08T00:03:58.612Z,47.80
2023-05-08T00:06:27.631Z,48.00
2023-05-08T00:08:55.589Z,48.00
2023-05-08T00:11:22.582Z,48.30
2023-05-08T00:13:49.443Z,48.40
2023-05-08T00:16:16.370Z,48.50
2023-05-08T00:18:43.340Z,48.80
2023-05-08T00:21:10.260Z,48.80
2023-05-08T00:23:37.235Z,48.80
2023-05-08T00:26:04.184Z,48.90
2023-05-08T00:28:31.166Z,49.00
2023-05-08T00:31:01.471Z,48.90
2023-05-08T00:33:28.418Z,48.90
2023-05-08T00:36:02.278Z,49.10
2023-05-08T00:38:37.255Z,49.20
2023-05-08T00:41:04.519Z,49.30
2023-05-08T00:43:31.372Z,49.60
2023-05-08T00:46:01.411Z,49.90
2023-05-08T00:48:30.637Z,50.00
2023-05-08T00:50:58.525Z,50.00
2023-05-08T00:53:27.415Z,50.00
2023-05-08T00:55:54.568Z,50.00
2023-05-08T00:58:23.245Z,50.00
2023-05-08T01:00:52.351Z,50.10
2023-05-08T01:03:19.272Z,50.30
2023-05-08T01:05:46.573Z,50.40
2023-05-08T01:08:13.405Z,50.20
2023-05-08T01:11:22.156Z,50.10
2023-05-08T01:13:56.776Z,49.70
2023-05-08T01:16:46.704Z,49.90
2023-05-08T01:19:38.058Z,49.80
2023-05-08T01:22:28.598Z,49.70
2023-05-08T01:25:35.488Z,49.80
2023-05-08T01:28:51.738Z,50.10
2023-05-08T01:31:44.320Z,50.20
2023-05-08T01:34:23.136Z,50.10
2023-05-08T01:37:02.035Z,50.30
2023-05-08T01:39:51.776Z,50.60
2023-05-08T01:42:40.438Z,50.70
2023-05-08T01:45:14.080Z,50.90
2023-05-08T01:47:42.411Z,51.20
2023-05-08T01:50:16.838Z,51.40
2023-05-08T01:52:51.412Z,51.60
2023-05-08T01:55:21.785Z,51.60
2023-05-08T01:57:52.281Z,52.00
2023-05-08T02:00:22.821Z,52.20
2023-05-08T02:02:51.952Z,52.30
2023-05-08T02:05:21.565Z,52.10
2023-05-08T02:07:51.255Z,52.40
2023-05-08T02:10:20.018Z,52.40
2023-05-08T02:12:48.646Z,52.30
2023-05-08T02:15:17.612Z,52.20
2023-05-08T02:17:48.708Z,52.20
2023-05-08T02:20:16.351Z,52.30
2023-05-08T02:22:46.052Z,52.40
2023-05-08T02:25:14.868Z,52.60
2023-05-08T02:27:45.712Z,52.60
2023-05-08T02:30:17.216Z,52.70
2023-05-08T02:32:46.325Z,52.50
2023-05-08T02:35:16.255Z,52.40
2023-05-08T02:37:45.089Z,52.30
2023-05-08T02:40:14.427Z,52.30
2023-05-08T02:42:41.873Z,52.30
2023-05-08T02:45:09.742Z,52.60
2023-05-08T02:48:01.260Z,52.50
2023-05-08T02:50:51.086Z,52.40
2023-05-08T02:53:26.358Z,52.50
2023-05-08T02:55:58.989Z,53.00
2023-05-08T02:58:37.191Z,53.10
2023-05-08T03:01:26.147Z,52.90
2023-05-08T03:04:08.902Z,52.40
2023-05-08T03:06:41.603Z,52.50
2023-05-08T03:09:23.189Z,52.40
2023-05-08T03:11:53.374Z,52.20
2023-05-08T03:14:24.341Z,52.50
2023-05-08T03:16:55.395Z,53.10
2023-05-08T03:19:30.478Z,53.90
2023-05-08T03:21:59.434Z,54.10
2023-05-08T03:24:29.655Z,54.40
2023-05-08T03:26:58.645Z,54.40
2023-05-08T03:29:26.947Z,53.90
2023-05-08T03:31:56.329Z,53.50
2023-05-08T03:34:24.628Z,53.50
2023-05-08T03:36:52.255Z,53.40
2023-05-08T03:39:19.387Z,53.30
2023-05-08T03:41:46.516Z,53.30
2023-05-08T03:44:14.398Z,53.30
2023-05-08T03:46:42.404Z,53.70
2023-05-08T03:49:09.776Z,53.90
2023-05-08T03:51:40.566Z,54.00
2023-05-08T03:54:07.562Z,54.30
2023-05-08T03:56:34.792Z,54.40
2023-05-08T03:59:17.909Z,54.80
2023-05-08T04:01:54.096Z,54.80
2023-05-08T04:04:39.960Z,55.00
2023-05-08T04:07:20.179Z,54.70
2023-05-08T04:10:13.921Z,54.50
2023-05-08T04:12:56.308Z,54.10
2023-05-08T04:15:29.148Z,54.10
2023-05-08T04:18:17.192Z,54.10
2023-05-08T04:20:48.085Z,53.80
2023-05-08T04:23:20.427Z,54.00
2023-05-08T04:25:49.726Z,54.00
2023-05-08T04:28:18.116Z,54.00
2023-05-08T04:30:45.634Z,54.20
2023-05-08T04:33:13.982Z,54.60
2023-05-08T04:35:41.050Z,54.70
2023-05-08T04:38:07.989Z,54.70
2023-05-08T04:40:34.878Z,54.70
2023-05-08T04:43:01.848Z,54.80
2023-05-08T04:45:28.695Z,55.00
2023-05-08T04:47:55.843Z,55.00
2023-05-08T04:50:22.801Z,54.90
2023-05-08T04:52:49.805Z,54.90
2023-05-08T04:55:16.821Z,55.00
2023-05-08T04:57:44.578Z,55.10
2023-05-08T05:00:12.002Z,55.10
2023-05-08T05:02:38.924Z,55.10
2023-05-08T05:05:06.208Z,55.10
2023-05-08T05:07:33.122Z,55.00
2023-05-08T05:10:00.683Z,55.00
2023-05-08T05:12:27.677Z,55.10
2023-05-08T05:14:54.559Z,55.10
2023-05-08T05:17:21.759Z,55.10
2023-05-08T05:19:49.153Z,55.00
2023-05-08T05:22:16.770Z,55.00
2023-05-08T05:24:43.687Z,54.80
2023-05-08T05:27:10.554Z,54.80
2023-05-08T05:29:37.429Z,54.80
2023-05-08T05:32:04.480Z,54.80
2023-05-08T05:34:31.354Z,54.70
2023-05-08T05:36:58.323Z,54.40
2023-05-08T05:39:25.225Z,54.30
2023-05-08T05:41:52.136Z,53.90
2023-05-08T05:44:19.062Z,53.70
2023-05-08T05:46:46.013Z,53.40
2023-05-08T05:49:15.027Z,53.60
2023-05-08T05:51:41.953Z,53.60
2023-05-08T05:54:08.928Z,53.40
2023-05-08T05:56:35.783Z,53.20
2023-05-08T05:59:02.753Z,53.50
2023-05-08T06:01:29.777Z,53.70
2023-05-08T06:03:56.783Z,54.20
2023-05-08T06:06:24.882Z,54.40
2023-05-08T06:08:51.874Z,54.00
2023-05-08T06:11:18.814Z,53.90
2023-05-08T06:13:45.709Z,54.10
2023-05-08T06:16:12.687Z,54.10
2023-05-08T06:18:39.560Z,54.20
2023-05-08T06:21:06.476Z,54.20
2023-05-08T06:23:33.674Z,54.00
2023-05-08T06:26:00.634Z,53.70
2023-05-08T06:28:28.173Z,53.40
2023-05-08T06:30:55.122Z,53.30
2023-05-08T06:33:23.574Z,53.30
2023-05-08T06:35:51.650Z,53.20
2023-05-08T06:38:19.158Z,53.50
2023-05-08T06:40:46.648Z,53.70
2023-05-08T06:43:13.860Z,53.20
2023-05-08T06:45:41.005Z,52.80
2023-05-08T06:48:08.096Z,52.70
2023-05-08T06:50:38.150Z,52.60
2023-05-08T06:53:05.527Z,52.60
2023-05-08T06:55:32.421Z,52.50
2023-05-08T06:57:59.381Z,52.40
2023-05-08T07:00:26.626Z,52.10
2023-05-08T07:02:53.638Z,52.00
2023-05-08T07:05:20.718Z,51.80
2023-05-08T07:07:47.734Z,51.70
2023-05-08T07:10:14.591Z,51.70
2023-05-08T07:12:41.545Z,51.70
2023-05-08T07:15:24.093Z,51.70
2023-05-08T07:17:52.936Z,51.60
2023-05-08T07:20:19.950Z,51.20
2023-05-08T07:22:46.777Z,50.80
2023-05-08T07:25:13.930Z,50.80
2023-05-08T07:27:41.117Z,50.40
2023-05-08T07:30:09.909Z,50.50
2023-05-08T07:32:39.179Z,50.60
2023-05-08T07:35:10.441Z,50.40
2023-05-08T07:37:38.646Z,50.70
2023-05-08T07:40:06.313Z,51.30
2023-05-08T07:42:41.849Z,50.80
2023-05-08T07:45:10.185Z,50.50
2023-05-08T07:47:37.100Z,50.20
2023-05-08T07:50:04.756Z,50.10
2023-05-08T07:52:31.941Z,50.40
2023-05-08T07:54:58.834Z,50.30
2023-05-08T07:57:25.746Z,50.60
2023-05-08T07:59:52.577Z,50.50
2023-05-08T08:02:19.626Z,50.90
2023-05-08T08:04:47.435Z,50.90
2023-05-08T08:07:14.280Z,51.10
2023-05-08T08:09:41.133Z,50.90
2023-05-08T08:12:08.035Z,50.90
2023-05-08T08:14:34.994Z,51.50
2023-05-08T08:17:01.904Z,50.90
2023-05-08T08:19:28.877Z,51.00
2023-05-08T08:21:55.796Z,50.80
2023-05-08T08:24:23.850Z,50.30
2023-05-08T08:26:50.762Z,50.50
2023-05-08T08:29:17.777Z,50.30
2023-05-08T08:31:44.755Z,50.30
2023-05-08T08:34:11.690Z,51.20
2023-05-08T08:36:39.767Z,51.40
2023-05-08T08:39:07.406Z,51.30
2023-05-08T08:41:35.067Z,51.30
2023-05-08T08:44:01.958Z,51.00
2023-05-08T08:46:28.978Z,50.80
2023-05-08T08:48:57.664Z,50.40
2023-05-08T08:51:34.868Z,50.50
2023-05-08T08:54:11.760Z,49.60
2023-05-08T08:56:42.853Z,49.30
2023-05-08T08:59:12.105Z,48.80
2023-05-08T09:01:43.917Z,47.70
2023-05-08T09:04:11.280Z,47.60
2023-05-08T09:06:39.923Z,47.30
2023-05-08T09:09:06.997Z,46.70
2023-05-08T09:11:36.266Z,45.30
2023-05-08T09:14:03.636Z,44.90
2023-05-08T09:16:30.645Z,45.00
2023-05-08T09:18:57.549Z,43.80
2023-05-08T09:21:24.731Z,43.20
2023-05-08T09:23:58.658Z,42.80
2023-05-08T09:26:32.428Z,42.90
2023-05-08T09:29:08.641Z,43.40
2023-05-08T09:31:40.652Z,43.70
2023-05-08T09:34:09.699Z,43.30
2023-05-08T09:36:37.294Z,43.80
2023-05-08T09:39:04.283Z,43.50
2023-05-08T09:41:31.230Z,43.20
2023-05-08T09:44:03.481Z,43.80
2023-05-08T09:46:30.994Z,44.10
2023-05-08T09:48:59.667Z,44.00
2023-05-08T09:51:28.168Z,43.70
2023-05-08T09:53:56.217Z,43.90
2023-05-08T09:56:37.299Z,44.40
2023-05-08T09:59:21.980Z,43.90
2023-05-08T10:01:49.021Z,44.30
2023-05-08T10:04:16.129Z,44.50
2023-05-08T10:06:43.345Z,44.50
2023-05-08T10:09:14.800Z,44.60
2023-05-08T10:11:52.051Z,45.00
2023-05-08T10:14:19.935Z,44.70
2023-05-08T10:16:49.464Z,43.60
2023-05-08T10:19:18.533Z,43.60
2023-05-08T10:21:50.409Z,43.90
2023-05-08T10:24:26.461Z,44.10
2023-05-08T10:27:35.234Z,44.00
2023-05-08T10:30:06.550Z,43.70
2023-05-08T10:32:40.721Z,43.80
2023-05-08T10:35:11.441Z,43.90
2023-05-08T10:37:39.674Z,43.50
2023-05-08T10:40:07.225Z,44.00
2023-05-08T10:42:37.658Z,44.30
2023-05-08T10:45:08.551Z,43.30
2023-05-08T10:48:13.607Z,43.60
2023-05-08T10:50:58.170Z,43.60
2023-05-08T10:53:51.129Z,43.60
2023-05-08T10:56:18.103Z,43.20
2023-05-08T10:58:44.964Z,43.10
2023-05-08T11:01:12.620Z,43.90
2023-05-08T11:03:47.694Z,43.50
2023-05-08T11:06:14.968Z,43.20
2023-05-08T11:08:50.052Z,43.10
2023-05-08T11:11:51.678Z,43.30
2023-05-08T11:14:19.750Z,43.60
2023-05-08T11:16:56.550Z,44.40
2023-05-08T11:19:25.262Z,43.60
2023-05-08T11:22:13.489Z,43.70
2023-05-08T11:25:01.619Z,43.80
2023-05-08T11:27:51.701Z,43.30
2023-05-08T11:30:34.628Z,43.40
2023-05-08T11:33:05.006Z,43.50
2023-05-08T11:35:49.414Z,43.60
2023-05-08T11:38:17.404Z,43.50
2023-05-08T11:40:58.126Z,43.40
2023-05-08T11:43:34.218Z,43.40
2023-05-08T11:46:13.780Z,43.10
2023-05-08T11:48:41.079Z,43.40
2023-05-08T11:51:08.018Z,43.40
2023-05-08T11:53:37.165Z,43.30
2023-05-08T11:56:04.710Z,43.10
2023-05-08T11:58:31.718Z,43.00
2023-05-08T12:00:58.672Z,43.30
2023-05-08T12:03:26.178Z,43.10
2023-05-08T12:05:57.629Z,43.00
2023-05-08T12:08:24.741Z,43.20
2023-05-08T12:10:52.603Z,43.30
2023-05-08T12:13:23.494Z,43.00
2023-05-08T12:15:59.322Z,43.30
2023-05-08T12:18:28.371Z,43.20
2023-05-08T12:20:58.203Z,42.80
2023-05-08T12:23:29.894Z,42.70
2023-05-08T12:26:00.670Z,42.40
2023-05-08T12:28:27.870Z,42.50
2023-05-08T12:30:55.058Z,42.80
2023-05-08T12:33:22.429Z,42.60
2023-05-08T12:35:49.799Z,42.40
2023-05-08T12:38:17.067Z,43.00
2023-05-08T12:40:47.769Z,42.20
2023-05-08T12:43:14.926Z,42.70
2023-05-08T12:45:43.226Z,43.00
2023-05-08T12:48:12.304Z,43.20
2023-05-08T12:50:43.779Z,43.00
2023-05-08T12:53:18.627Z,43.40
2023-05-08T12:55:57.730Z,42.70
2023-05-08T12:58:26.942Z,42.90
2023-05-08T13:01:03.364Z,42.50
2023-05-08T13:03:30.805Z,42.60
2023-05-08T13:05:58.903Z,42.50
2023-05-08T13:08:37.406Z,42.20
2023-05-08T13:11:05.875Z,42.20
2023-05-08T13:13:34.919Z,42.10
2023-05-08T13:16:07.013Z,41.80
2023-05-08T13:18:36.866Z,41.60
2023-05-08T13:21:04.033Z,41.50
2023-05-08T13:23:30.981Z,41.80
2023-05-08T13:25:57.856Z,41.80
2023-05-08T13:28:24.825Z,42.00
2023-05-08T13:30:51.769Z,42.20
2023-05-08T13:33:18.713Z,42.10
2023-05-08T13:35:45.810Z,42.00
2023-05-08T13:38:12.797Z,41.70
2023-05-08T13:40:39.942Z,41.50
2023-05-08T13:43:06.824Z,41.90
2023-05-08T13:45:33.774Z,41.60
2023-05-08T13:48:00.885Z,41.80
2023-05-08T13:50:28.391Z,41.80
2023-05-08T13:52:55.410Z,41.90
2023-05-08T13:55:23.407Z,41.80
2023-05-08T13:57:50.991Z,41.50
2023-05-08T14:00:18.519Z,41.40
2023-05-08T14:02:45.620Z,41.10
2023-05-08T14:05:12.758Z,40.70
2023-05-08T14:07:39.996Z,40.70
2023-05-08T14:10:07.262Z,40.50
2023-05-08T14:12:37.037Z,40.30
2023-05-08T14:15:05.225Z,40.30
2023-05-08T14:17:32.348Z,40.30
2023-05-08T14:19:59.543Z,40.00
2023-05-08T14:22:26.727Z,40.00
2023-05-08T14:24:53.607Z,39.50
2023-05-08T14:27:20.698Z,39.60
2023-05-08T14:29:47.646Z,39.20
2023-05-08T14:32:14.880Z,39.10
2023-05-08T14:34:41.714Z,38.80
2023-05-08T14:37:08.698Z,38.10
2023-05-08T14:39:35.719Z,37.50
2023-05-08T14:44:32.898Z,37.20
2023-05-08T14:46:59.839Z,37.20
2023-05-08T14:49:36.727Z,37.10
2023-05-08T14:52:06.362Z,36.90
2023-05-08T14:54:35.082Z,36.60
2023-05-08T14:57:02.208Z,36.00
2023-05-08T14:59:29.170Z,35.70
2023-05-08T15:01:56.063Z,35.50
2023-05-08T15:04:23.282Z,35.30
2023-05-08T15:06:50.321Z,35.10
2023-05-08T15:09:17.259Z,35.10
2023-05-08T15:11:44.468Z,34.90
2023-05-08T15:14:11.442Z,35.20
2023-05-08T15:16:38.427Z,35.40
2023-05-08T15:19:05.466Z,35.50
2023-05-08T15:21:32.367Z,35.80
2023-05-08T15:23:59.227Z,36.30
2023-05-08T15:26:26.120Z,36.90
2023-05-08T15:28:53.085Z,37.40
2023-05-08T15:31:19.954Z,37.70
2023-05-08T15:33:48.118Z,37.90
2023-05-08T15:36:15.598Z,37.50
2023-05-08T15:38:42.968Z,36.60
2023-05-08T15:41:14.556Z,36.20
2023-05-08T15:43:42.625Z,36.30
2023-05-08T15:46:09.609Z,35.80
2023-05-08T15:48:36.662Z,35.90
2023-05-08T15:51:03.720Z,36.10
2023-05-08T15:53:30.613Z,36.20
2023-05-08T15:55:57.658Z,37.10
2023-05-08T15:58:25.051Z,36.60
2023-05-08T16:00:52.224Z,37.20
2023-05-08T16:03:19.346Z,37.70
2023-05-08T16:05:46.613Z,38.50
2023-05-08T16:08:13.935Z,39.20
2023-05-08T16:10:41.933Z,39.90
2023-05-08T16:13:09.758Z,40.40
2023-05-08T16:15:36.784Z,41.30
2023-05-08T16:18:04.163Z,41.70
2023-05-08T16:20:32.842Z,42.10
2023-05-08T16:23:00.434Z,42.30
2023-05-08T16:25:27.375Z,42.40
2023-05-08T16:27:54.243Z,42.60
2023-05-08T16:30:21.135Z,43.20
2023-05-08T16:32:48.122Z,43.00
2023-05-08T16:35:15.448Z,43.10
2023-05-08T16:37:42.840Z,43.20
2023-05-08T16:40:10.604Z,43.40
2023-05-08T16:42:38.140Z,43.60
2023-05-08T16:45:05.829Z,44.00
2023-05-08T16:47:33.472Z,43.70
2023-05-08T16:50:00.764Z,43.50
2023-05-08T16:52:27.831Z,43.60
2023-05-08T16:54:54.765Z,43.70
2023-05-08T16:57:21.827Z,44.10
2023-05-08T16:59:48.793Z,44.50
2023-05-08T17:02:19.022Z,44.50
2023-05-08T17:04:47.441Z,44.80
2023-05-08T17:07:15.721Z,45.00
2023-05-08T17:09:42.957Z,45.20
2023-05-08T17:12:10.321Z,45.60
2023-05-08T17:14:39.471Z,45.80
2023-05-08T17:17:07.027Z,45.70
2023-05-08T17:19:34.190Z,45.70
2023-05-08T17:22:01.177Z,45.90
2023-05-08T17:24:30.326Z,46.10
2023-05-08T17:26:57.198Z,46.20
2023-05-08T17:29:24.251Z,46.60
2023-05-08T17:31:51.197Z,46.50
2023-05-08T17:34:18.182Z,46.90
2023-05-08T17:36:45.097Z,47.00
2023-05-08T17:39:12.371Z,47.20
2023-05-08T17:41:39.358Z,47.20
2023-05-08T17:44:07.065Z,47.10
2023-05-08T17:46:33.980Z,46.80
2023-05-08T17:49:00.921Z,46.70
2023-05-08T17:51:27.899Z,46.60
2023-05-08T17:53:56.569Z,46.70
2023-05-08T17:56:23.756Z,46.80
2023-05-08T17:58:52.553Z,46.80
2023-05-08T18:01:20.120Z,47.30
2023-05-08T18:03:50.360Z,47.30
2023-05-08T18:06:18.715Z,47.60
2023-05-08T18:08:46.524Z,47.20
2023-05-08T18:11:24.696Z,47.40
2023-05-08T18:13:54.329Z,47.20
2023-05-08T18:16:22.235Z,47.00
2023-05-08T18:18:50.189Z,47.30
2023-05-08T18:21:17.101Z,47.50
2023-05-08T18:23:44.080Z,47.60
2023-05-08T18:26:17.502Z,47.60
2023-05-08T18:28:44.819Z,47.60
2023-05-08T18:31:12.220Z,47.70
2023-05-08T18:33:39.393Z,47.90
2023-05-08T18:36:07.157Z,47.90
2023-05-08T18:38:34.775Z,47.80
2023-05-08T18:41:03.217Z,47.80
2023-05-08T18:43:30.153Z,47.80
2023-05-08T18:45:58.105Z,47.80
2023-05-08T18:48:26.601Z,47.80
2023-05-08T18:50:55.829Z,47.60
2023-05-08T18:53:23.216Z,47.50
2023-05-08T18:55:50.185Z,47.40
2023-05-08T18:58:17.073Z,47.50
2023-05-08T19:00:44.057Z,47.40
2023-05-08T19:03:11.167Z,47.50
2023-05-08T19:05:38.144Z,47.60
2023-05-08T19:08:05.218Z,47.60
2023-05-08T19:10:32.119Z,47.70
2023-05-08T19:13:02.045Z,47.80
2023-05-08T19:15:29.242Z,47.90
2023-05-08T19:17:56.237Z,47.90
2023-05-08T19:20:23.281Z,47.90
2023-05-08T19:22:50.186Z,47.80
2023-05-08T19:25:17.088Z,47.90
2023-05-08T19:27:44.082Z,47.80
2023-05-08T19:30:11.596Z,47.90
2023-05-08T19:32:38.672Z,47.90
2023-05-08T19:35:06.016Z,47.90
2023-05-08T19:37:32.862Z,47.90
2023-05-08T19:39:59.869Z,48.00
2023-05-08T19:42:26.839Z,48.00
2023-05-08T19:44:53.709Z,48.10
2023-05-08T19:47:20.845Z,48.20
2023-05-08T19:49:47.694Z,48.20
2023-05-08T19:52:14.609Z,48.30
2023-05-08T19:54:43.640Z,48.30
2023-05-08T19:57:10.594Z,48.30
2023-05-08T19:59:37.495Z,48.40
2023-05-08T20:02:04.381Z,48.40
2023-05-08T20:04:32.310Z,48.40
2023-05-08T20:07:00.843Z,48.40
2023-05-08T20:09:27.732Z,48.40
2023-05-08T20:11:55.893Z,48.50
2023-05-08T20:14:22.904Z,48.50
2023-05-08T20:16:50.193Z,48.50
2023-05-08T20:19:17.145Z,48.60
2023-05-08T20:21:44.105Z,48.70
2023-05-08T20:24:11.077Z,48.60
2023-05-08T20:26:37.920Z,48.70
2023-05-08T20:29:04.807Z,48.90
2023-05-08T20:31:32.251Z,48.90
2023-05-08T20:33:59.806Z,49.00
2023-05-08T20:36:26.873Z,49.00
2023-05-08T20:38:53.883Z,49.20
2023-05-08T20:41:20.798Z,49.30
2023-05-08T20:43:47.663Z,49.50
2023-05-08T20:46:14.572Z,49.60
2023-05-08T20:48:41.535Z,49.70
2023-05-08T20:51:08.406Z,49.80
2023-05-08T20:53:35.282Z,49.90
2023-05-08T20:56:03.498Z,49.90
2023-05-08T20:58:30.589Z,50.00
2023-05-08T21:00:57.793Z,50.10
2023-05-08T21:03:24.741Z,50.10
2023-05-08T21:05:51.927Z,50.30
2023-05-08T21:08:26.552Z,50.30
2023-05-08T21:10:53.458Z,50.30
2023-05-08T21:13:20.393Z,50.20
2023-05-08T21:15:52.808Z,50.20
2023-05-08T21:18:19.722Z,50.30
2023-05-08T21:20:50.228Z,50.40
2023-05-08T21:23:18.846Z,50.40
2023-05-08T21:25:47.186Z,50.50
2023-05-08T21:28:17.415Z,50.40
2023-05-08T21:30:44.652Z,50.60
2023-05-08T21:33:13.901Z,50.50
2023-05-08T21:35:41.747Z,50.60
2023-05-08T21:38:09.016Z,50.50
2023-05-08T21:40:35.846Z,50.60
2023-05-08T21:43:02.710Z,50.40
2023-05-08T21:45:31.151Z,50.50
2023-05-08T21:47:58.706Z,50.40
2023-05-08T21:50:28.113Z,50.30
2023-05-08T21:52:56.681Z,50.30
2023-05-08T21:55:24.176Z,50.30
2023-05-08T21:57:51.355Z,50.40
2023-05-08T22:00:18.691Z,50.40
2023-05-08T22:02:45.719Z,50.30
2023-05-08T22:05:13.039Z,50.30
2023-05-08T22:07:40.199Z,50.40
2023-05-08T22:10:09.234Z,50.40
2023-05-08T22:12:36.214Z,50.30
2023-05-08T22:15:07.528Z,50.50
2023-05-08T22:17:40.299Z,50.50
2023-05-08T22:20:08.881Z,50.50
2023-05-08T22:22:35.737Z,50.60
2023-05-08T22:25:02.582Z,50.60
2023-05-08T22:27:29.515Z,50.60
2023-05-08T22:29:56.396Z,50.60
2023-05-08T22:32:24.383Z,50.70
2023-05-08T22:34:51.503Z,50.70
2023-05-08T22:37:18.818Z,50.70
2023-05-08T22:39:45.770Z,50.70
2023-05-08T22:42:12.824Z,50.70
2023-05-08T22:44:39.933Z,50.70
2023-05-08T22:47:07.134Z,50.70
2023-05-08T22:49:34.589Z,50.60
2023-05-08T22:52:01.564Z,50.70
2023-05-08T22:54:28.578Z,50.60
2023-05-08T22:56:55.572Z,50.60
2023-05-08T22:59:22.426Z,50.60
2023-05-08T23:01:49.310Z,50.60
2023-05-08T23:04:16.480Z,50.50
2023-05-08T23:06:43.414Z,50.50
2023-05-08T23:09:10.367Z,50.40
2023-05-08T23:11:37.327Z,50.40
2023-05-08T23:14:04.162Z,50.40
2023-05-08T23:16:31.099Z,50.40
2023-05-08T23:18:58.186Z,50.40
2023-05-08T23:21:25.655Z,50.40
2023-05-08T23:23:52.872Z,50.50
2023-05-08T23:26:19.761Z,50.50
2023-05-08T23:28:46.629Z,50.50
2023-05-08T23:31:13.543Z,50.60
2023-05-08T23:33:40.536Z,50.70
2023-05-08T23:36:08.077Z,50.70
2023-05-08T23:38:35.033Z,50.70
2023-05-08T23:41:01.898Z,50.80
2023-05-08T23:43:28.813Z,50.90
2023-05-08T23:45:55.799Z,51.00
2023-05-08T23:48:23.803Z,51.00
2023-05-08T23:50:50.761Z,51.00
2023-05-08T23:53:17.646Z,51.10
2023-05-08T23:55:44.549Z,51.20
2023-05-08T23:58:11.422Z,51.20
